Ebeye, MH

11:00 AM MHT on July 14, 2014 (GMT +1200)
Andersen Air Force Base (PGUA) Elev 614 ft | 13.58 °N, 144.93 °E | Change Station

Current weather conditions updated 2 minutes ago

Partly Cloudy
Partly Cloudy
84 °F
Feels Like 93 °F
N
12
Wind Variable Wind from ESE

Today is forecast to be nearly the same temperature as yesterday. Afternoon showers and thunderstorms.

Today
High -- | Low -- °F
--% Chance of Precip.
Yesterday
High -- | Low -- °F
Precip. -- in
6:26 AM 6:56 PM
Full, 97% visible
Pressure 29.84 in
Visibility 10.0 miles
Clouds Few 1600 ft
Heat Index 93 °F
Dew Point 76 °F
Humidity 77%
Rainfall 0.00 in
Snow Depth Not available.
UV 6 out of 12
Pollen Not available.
Air Quality Not available.
Flu Activity
METAR PGUA 132258Z AUTO 12010KT 10SM FEW016 29/25 A2987 RMK AO2 SLP105 T02900246 RVRNO VISNO RWY24L $

More Conditions Fewer Conditions

Pressure 29.84 in
Visibility 10.0 miles
Clouds Few 1600 ft
Heat Index 93 °F
Dew Point 76 °F
Humidity 77%
Rainfall 0.00 in
Snow Depth Not available.
UV 6 out of 12
Pollen Not available.
Air Quality Not available.
Flu Activity
METAR PGUA 132258Z AUTO 12010KT 10SM FEW016 29/25 A2987 RMK AO2 SLP105 T02900246 RVRNO VISNO RWY24L $

More Conditions Fewer Conditions

10-Day Weather Forecast

Almanac

Astronomy

Jul. 14, 2014 Rise Set
Actual Time 6:26 AM MHT 6:56 PM MHT
Civil Twilight 6:03 AM MHT 7:19 PM MHT
Nautical Twilight 5:37 AM MHT 7:45 PM MHT
Astronomical Twilight 5:10 AM MHT 8:12 PM MHT
Moon 8:31 PM MHT (7/14) 7:48 AM MHT (7/14)
Length of Visible Light 13h 15m
Length of Day
12h 30m
Tomorrow will be 0m 12s shorter.
Full, 97% of the Moon is Illuminated
Jul 13
Full
Jul 18
Last Quarter
Jul 26
New
Aug 3
First Quarter
Aug 10
Full

Community

WunderPhotos

Upload Photos

1,733,432 photos uploaded!

Nearby

Snow Depth

Station Depth Elevation
No new snow has been reported.

Earthquake Activity

City Distance Mag. Time & Date
No recent earthquake activity has been reported nearby.
Minimum magnitude displayed is 2.5.

Coastal Water Temperatures

Place Temperature
No Stations Reporting

Nearby Weather Stations

There are no personal weather stations in this area.